Time;durP1;ratioP1;P1;durP2;ratioP2;P2;SDS_P1;SDS_P2;PMS_P1;PMS_P2;Temp;Humidity;BMP_temperature;BMP_pressure;BME280_temperature;BME280_humidity;BME280_pressure;Samples;Min_cycle;Max_cycle;Signal;HPM_P1;HPM_P2
2022/08/20 00:01:16;;;;;;;16.48;12.98;;;;;;;;;;5281002;28;20295;-68
2022/08/20 00:03:48;;;;;;;14.13;12.73;;;;;;;;;;5281557;28;20329;-67
2022/08/20 00:06:21;;;;;;;15.00;12.48;;;;;;;;;;5282071;28;20382;-68
2022/08/20 00:08:52;;;;;;;15.32;12.85;;;;;;;;;;5280603;28;20382;-68
2022/08/20 00:11:24;;;;;;;15.10;12.40;;;;;;;;;;5281877;28;20024;-68
2022/08/20 00:13:57;;;;;;;15.18;11.98;;;;;;;;;;5281430;28;20024;-67
2022/08/20 00:16:31;;;;;;;13.40;11.48;;;;;;;;;;5280709;28;20013;-68
2022/08/20 00:19:04;;;;;;;12.25;10.95;;;;;;;;;;5281759;28;20030;-68
2022/08/20 00:21:35;;;;;;;13.63;11.98;;;;;;;;;;5281096;28;20023;-68
2022/08/20 00:24:07;;;;;;;13.40;12.00;;;;;;;;;;5280763;28;20113;-67
2022/08/20 00:26:38;;;;;;;13.75;11.32;;;;;;;;;;5281412;28;20027;-68
2022/08/20 00:29:09;;;;;;;14.47;10.97;;;;;;;;;;5281967;28;20021;-68
2022/08/20 00:31:40;;;;;;;13.50;11.05;;;;;;;;;;5280363;28;20369;-68
2022/08/20 00:34:11;;;;;;;12.68;11.38;;;;;;;;;;5281559;28;20085;-68
2022/08/20 00:36:42;;;;;;;15.65;11.75;;;;;;;;;;5280161;28;20463;-67
2022/08/20 00:39:14;;;;;;;13.15;11.82;;;;;;;;;;5281612;28;20471;-67
2022/08/20 00:41:45;;;;;;;13.80;11.80;;;;;;;;;;5284352;28;20467;-67
2022/08/20 00:44:18;;;;;;;13.32;11.07;;;;;;;;;;5284743;28;20039;-67
2022/08/20 00:46:49;;;;;;;13.57;11.98;;;;;;;;;;5284868;28;20020;-67
2022/08/20 00:49:24;;;;;;;14.85;11.55;;;;;;;;;;5285529;28;20024;-67
2022/08/20 00:52:01;;;;;;;15.10;12.60;;;;;;;;;;5284302;28;20040;-67
2022/08/20 00:54:35;;;;;;;13.85;11.27;;;;;;;;;;5284803;28;20013;-68
2022/08/20 00:57:09;;;;;;;15.40;11.00;;;;;;;;;;5285192;28;20108;-67
2022/08/20 00:59:41;;;;;;;14.85;10.85;;;;;;;;;;5283866;28;20024;-68
2022/08/20 01:02:13;;;;;;;13.10;10.93;;;;;;;;;;5285405;28;20040;-67
2022/08/20 01:04:49;;;;;;;13.40;10.70;;;;;;;;;;5283927;28;20568;-68
2022/08/20 01:07:24;;;;;;;11.32;10.23;;;;;;;;;;5285299;28;20019;-67
2022/08/20 01:09:55;;;;;;;11.77;10.57;;;;;;;;;;5284757;28;20031;-68
2022/08/20 01:12:27;;;;;;;12.10;10.67;;;;;;;;;;5283867;28;20016;-68
2022/08/20 01:15:00;;;;;;;14.93;12.70;;;;;;;;;;5285185;28;20267;-67
2022/08/20 01:17:33;;;;;;;13.27;10.93;;;;;;;;;;5284500;28;20425;-67
2022/08/20 01:20:08;;;;;;;15.55;11.45;;;;;;;;;;5284138;28;20012;-67
2022/08/20 01:25:52;;;;;;;16.58;12.38;;;;;;;;;;5284256;28;20029;-68
2022/08/20 01:28:26;;;;;;;16.70;13.20;;;;;;;;;;5284671;28;20397;-68
2022/08/20 01:30:58;;;;;;;15.27;13.35;;;;;;;;;;5284724;28;20027;-68
2022/08/20 01:33:30;;;;;;;15.57;13.50;;;;;;;;;;5283437;28;20016;-68
2022/08/20 01:36:02;;;;;;;14.23;12.80;;;;;;;;;;5284747;28;20055;-68
2022/08/20 01:38:34;;;;;;;14.57;13.07;;;;;;;;;;5283666;28;20016;-68
2022/08/20 01:41:09;;;;;;;15.35;12.98;;;;;;;;;;5283683;28;20020;-68
2022/08/20 01:43:41;;;;;;;19.52;14.32;;;;;;;;;;5284033;28;20107;-68
2022/08/20 01:46:12;;;;;;;18.60;14.60;;;;;;;;;;5284346;28;20100;-67
2022/08/20 01:48:43;;;;;;;16.63;14.10;;;;;;;;;;5283103;28;20387;-67
2022/08/20 01:51:17;;;;;;;17.75;14.55;;;;;;;;;;5283784;28;20021;-68
2022/08/20 01:53:49;;;;;;;19.02;14.18;;;;;;;;;;5282211;28;20434;-68
2022/08/20 01:56:23;;;;;;;22.08;14.25;;;;;;;;;;5284427;28;20017;-68
2022/08/20 01:58:56;;;;;;;16.48;14.43;;;;;;;;;;5283961;28;20043;-68
2022/08/20 02:01:32;;;;;;;20.27;14.95;;;;;;;;;;5282518;28;20046;-68
2022/08/20 02:04:05;;;;;;;20.58;15.02;;;;;;;;;;5283867;28;20028;-68
2022/08/20 02:06:39;;;;;;;20.95;15.45;;;;;;;;;;5283505;28;20019;-67
2022/08/20 02:09:11;;;;;;;18.23;15.55;;;;;;;;;;5282953;28;20013;-68
2022/08/20 02:11:44;;;;;;;23.65;15.63;;;;;;;;;;5283004;28;20384;-68
2022/08/20 02:14:16;;;;;;;26.27;17.05;;;;;;;;;;5283602;28;20024;-67
2022/08/20 02:16:48;;;;;;;23.00;17.85;;;;;;;;;;5282167;28;20071;-68
2022/08/20 02:19:21;;;;;;;22.63;16.98;;;;;;;;;;5283525;28;20020;-68
2022/08/20 02:21:54;;;;;;;21.90;16.95;;;;;;;;;;5282194;28;20028;-67
2022/08/20 02:24:25;;;;;;;24.20;17.25;;;;;;;;;;5282845;28;20364;-67
2022/08/20 02:26:56;;;;;;;23.52;16.52;;;;;;;;;;5283376;28;20012;-67
2022/08/20 02:29:28;;;;;;;22.60;15.80;;;;;;;;;;5282196;28;20074;-68
2022/08/20 02:31:59;;;;;;;20.17;15.15;;;;;;;;;;5283452;28;20096;-67
2022/08/20 02:34:30;;;;;;;21.63;15.87;;;;;;;;;;5282763;28;20028;-67
2022/08/20 02:37:02;;;;;;;22.85;15.65;;;;;;;;;;5282308;28;20354;-67
2022/08/20 02:39:33;;;;;;;26.50;14.70;;;;;;;;;;5282389;28;20008;-67
2022/08/20 02:42:05;;;;;;;23.85;15.55;;;;;;;;;;5282934;28;20422;-67
2022/08/20 02:44:36;;;;;;;25.83;15.25;;;;;;;;;;5281626;28;20570;-67
2022/08/20 02:47:07;;;;;;;22.40;14.55;;;;;;;;;;5283035;28;20077;-67
2022/08/20 02:49:38;;;;;;;20.70;13.88;;;;;;;;;;5282261;28;20024;-67
2022/08/20 02:52:10;;;;;;;24.60;14.53;;;;;;;;;;5282043;28;20107;-68
2022/08/20 02:54:41;;;;;;;23.60;16.15;;;;;;;;;;5282078;28;20753;-67
2022/08/20 02:57:13;;;;;;;23.50;17.27;;;;;;;;;;5281967;28;20772;-67
2022/08/20 02:59:44;;;;;;;21.83;16.85;;;;;;;;;;5282059;28;20660;-67
2022/08/20 03:02:15;;;;;;;25.40;18.57;;;;;;;;;;5282469;28;20099;-68
2022/08/20 03:04:46;;;;;;;32.90;20.40;;;;;;;;;;5280729;28;20302;-67
2022/08/20 03:07:17;;;;;;;22.80;19.53;;;;;;;;;;5282656;28;20095;-67
2022/08/20 03:09:49;;;;;;;30.40;20.88;;;;;;;;;;5282009;28;20286;-67
2022/08/20 03:12:20;;;;;;;26.20;19.67;;;;;;;;;;5281767;28;20009;-67
2022/08/20 03:14:51;;;;;;;31.10;21.65;;;;;;;;;;5281760;28;20492;-67
2022/08/20 03:17:22;;;;;;;30.17;21.17;;;;;;;;;;5282589;28;20150;-67
2022/08/20 03:19:53;;;;;;;27.88;21.15;;;;;;;;;;5281027;28;20028;-67
2022/08/20 03:22:24;;;;;;;30.88;21.70;;;;;;;;;;5282071;28;20046;-68
2022/08/20 03:24:56;;;;;;;24.13;21.27;;;;;;;;;;5281817;28;20036;-67
2022/08/20 03:27:27;;;;;;;31.85;22.10;;;;;;;;;;5280757;28;20826;-68
2022/08/20 03:29:58;;;;;;;29.65;22.85;;;;;;;;;;5282093;28;20510;-67
2022/08/20 03:32:29;;;;;;;29.33;20.53;;;;;;;;;;5280889;28;20859;-68
2022/08/20 03:35:00;;;;;;;30.75;20.17;;;;;;;;;;5282144;28;20275;-68
2022/08/20 03:37:32;;;;;;;28.50;19.83;;;;;;;;;;5281475;28;20052;-68
2022/08/20 03:40:09;;;;;;;34.22;18.65;;;;;;;;;;5281142;28;20024;-68
2022/08/20 03:42:41;;;;;;;28.85;18.52;;;;;;;;;;5281525;28;20024;-68
2022/08/20 03:45:13;;;;;;;28.30;18.27;;;;;;;;;;5281865;28;20029;-68
2022/08/20 03:47:44;;;;;;;31.20;17.13;;;;;;;;;;5280519;28;20352;-68
2022/08/20 03:50:17;;;;;;;27.80;17.67;;;;;;;;;;5281712;28;20033;-68
2022/08/20 03:52:48;;;;;;;24.80;16.58;;;;;;;;;;5281312;28;20375;-68
2022/08/20 03:55:20;;;;;;;26.75;16.95;;;;;;;;;;5280951;28;20025;-68
2022/08/20 03:57:54;;;;;;;25.10;16.52;;;;;;;;;;5281099;28;20498;-68
2022/08/20 04:00:30;;;;;;;32.95;17.83;;;;;;;;;;5280182;28;20019;-68
2022/08/20 04:03:01;;;;;;;29.67;18.13;;;;;;;;;;5281501;28;20043;-68
2022/08/20 04:05:33;;;;;;;21.27;15.77;;;;;;;;;;5281281;28;20025;-68
2022/08/20 04:08:07;;;;;;;25.75;16.13;;;;;;;;;;5280996;28;20021;-68
2022/08/20 04:10:38;;;;;;;27.92;16.90;;;;;;;;;;5281034;28;20025;-68
2022/08/20 04:13:10;;;;;;;27.00;16.52;;;;;;;;;;5281418;28;20448;-68
2022/08/20 04:15:41;;;;;;;24.10;17.55;;;;;;;;;;5281800;28;20016;-68
2022/08/20 04:18:13;;;;;;;24.42;17.00;;;;;;;;;;5285948;28;20101;-68
2022/08/20 04:20:45;;;;;;;24.63;17.65;;;;;;;;;;5285281;28;20020;-68
2022/08/20 04:23:17;;;;;;;30.58;19.05;;;;;;;;;;5284927;28;20112;-68
2022/08/20 04:25:48;;;;;;;31.55;19.15;;;;;;;;;;5285036;28;20103;-67
2022/08/20 04:28:24;;;;;;;26.30;20.02;;;;;;;;;;5285685;28;20055;-68
2022/08/20 04:30:56;;;;;;;34.70;22.88;;;;;;;;;;5285023;28;20399;-69
2022/08/20 04:33:30;;;;;;;28.52;22.90;;;;;;;;;;5284742;28;20121;-68
2022/08/20 04:36:04;;;;;;;33.08;24.83;;;;;;;;;;5284780;28;20060;-68
2022/08/20 04:38:35;;;;;;;31.50;24.48;;;;;;;;;;5284628;28;20466;-68
2022/08/20 04:41:07;;;;;;;33.97;25.00;;;;;;;;;;5285345;28;20047;-68
2022/08/20 04:43:38;;;;;;;32.47;26.10;;;;;;;;;;5283845;28;20289;-68
2022/08/20 04:46:09;;;;;;;34.47;27.07;;;;;;;;;;5285236;28;20017;-68
2022/08/20 04:48:40;;;;;;;34.63;26.77;;;;;;;;;;5284308;28;20354;-68
2022/08/20 04:51:13;;;;;;;35.92;27.35;;;;;;;;;;5284389;28;20266;-68
2022/08/20 04:53:45;;;;;;;37.17;26.95;;;;;;;;;;5284532;28;20917;-68
2022/08/20 04:56:17;;;;;;;37.65;29.52;;;;;;;;;;5285007;28;20024;-68
2022/08/20 04:58:49;;;;;;;36.08;28.85;;;;;;;;;;5283307;28;20024;-68
2022/08/20 05:01:22;;;;;;;34.78;26.65;;;;;;;;;;5284715;28;20557;-68
2022/08/20 05:03:53;;;;;;;34.85;27.77;;;;;;;;;;5283365;28;20628;-68
2022/08/20 05:06:27;;;;;;;36.53;27.63;;;;;;;;;;5284478;28;20016;-68
2022/08/20 05:08:59;;;;;;;37.03;27.10;;;;;;;;;;5284761;28;20024;-68
2022/08/20 05:11:30;;;;;;;37.95;27.40;;;;;;;;;;5283275;28;20029;-68
2022/08/20 05:14:02;;;;;;;36.00;26.98;;;;;;;;;;5284534;28;20344;-68
2022/08/20 05:16:36;;;;;;;38.97;28.02;;;;;;;;;;5284244;28;20355;-68
2022/08/20 05:19:08;;;;;;;34.00;26.02;;;;;;;;;;5283843;28;20024;-69
2022/08/20 05:21:40;;;;;;;34.40;23.85;;;;;;;;;;5284017;28;20020;-68
2022/08/20 05:24:11;;;;;;;33.85;24.15;;;;;;;;;;5284397;28;20047;-68
2022/08/20 05:26:43;;;;;;;45.90;25.20;;;;;;;;;;5282838;28;20028;-68
2022/08/20 05:29:14;;;;;;;34.63;26.20;;;;;;;;;;5284533;28;20486;-68
2022/08/20 05:31:45;;;;;;;37.78;25.85;;;;;;;;;;5282941;28;20037;-68
2022/08/20 05:34:17;;;;;;;34.67;24.55;;;;;;;;;;5284278;28;20020;-68
2022/08/20 05:36:48;;;;;;;36.05;25.80;;;;;;;;;;5283537;28;20024;-68
2022/08/20 05:39:20;;;;;;;37.38;24.95;;;;;;;;;;5283397;28;20377;-68
2022/08/20 05:41:52;;;;;;;36.22;23.95;;;;;;;;;;5283676;28;20450;-68
2022/08/20 05:44:23;;;;;;;33.40;24.50;;;;;;;;;;5283805;28;20029;-68
2022/08/20 05:46:54;;;;;;;37.45;25.00;;;;;;;;;;5282840;28;20738;-68
2022/08/20 05:49:25;;;;;;;32.40;25.87;;;;;;;;;;5283602;28;20081;-68
2022/08/20 05:51:58;;;;;;;43.63;29.03;;;;;;;;;;5283741;28;20267;-69
2022/08/20 05:54:29;;;;;;;42.20;29.90;;;;;;;;;;5282482;28;20255;-69
2022/08/20 05:57:00;;;;;;;36.00;28.27;;;;;;;;;;5283863;28;20023;-69
2022/08/20 05:59:33;;;;;;;36.67;30.33;;;;;;;;;;5283154;28;20267;-69
2022/08/20 06:04:23;;;;;;;42.25;29.45;;;;;;;;;;5282849;28;20368;-69
2022/08/20 06:04:55;;;;;;;38.95;27.98;;;;;;;;;;5283520;28;20067;-69
2022/08/20 06:07:27;;;;;;;40.80;28.65;;;;;;;;;;5282446;28;20727;-69
2022/08/20 06:09:59;;;;;;;41.08;28.42;;;;;;;;;;5283765;28;20013;-69
2022/08/20 06:12:31;;;;;;;41.05;28.23;;;;;;;;;;5283171;28;20024;-69
2022/08/20 06:15:06;;;;;;;38.95;28.10;;;;;;;;;;5282713;28;20059;-68
2022/08/20 06:17:37;;;;;;;45.30;29.80;;;;;;;;;;5282857;28;20024;-69
2022/08/20 06:20:09;;;;;;;47.05;29.50;;;;;;;;;;5283442;28;20039;-68
2022/08/20 06:22:40;;;;;;;49.80;30.55;;;;;;;;;;5281992;28;20028;-69
2022/08/20 06:25:11;;;;;;;43.85;29.48;;;;;;;;;;5283398;28;20029;-69
2022/08/20 06:27:42;;;;;;;44.92;29.45;;;;;;;;;;5282716;28;20259;-69
2022/08/20 06:30:14;;;;;;;47.67;29.60;;;;;;;;;;5282459;28;20472;-69
2022/08/20 06:32:45;;;;;;;43.85;29.75;;;;;;;;;;5282547;28;20726;-68
2022/08/20 06:35:17;;;;;;;48.95;29.73;;;;;;;;;;5282331;28;20040;-68
2022/08/20 06:37:49;;;;;;;39.78;29.23;;;;;;;;;;5282021;28;20086;-68
2022/08/20 06:40:24;;;;;;;37.47;27.35;;;;;;;;;;5283281;28;20495;-68
2022/08/20 06:42:55;;;;;;;44.80;30.02;;;;;;;;;;5281791;28;20020;-69
2022/08/20 06:45:28;;;;;;;40.17;29.95;;;;;;;;;;5282173;28;20021;-69
2022/08/20 06:48:00;;;;;;;46.08;31.65;;;;;;;;;;5282812;28;20016;-68
2022/08/20 06:50:38;;;;;;;38.70;30.83;;;;;;;;;;5281339;28;20025;-69
2022/08/20 06:53:10;;;;;;;39.80;30.20;;;;;;;;;;5282796;28;20020;-69
2022/08/20 06:55:43;;;;;;;48.08;32.38;;;;;;;;;;5282125;28;20008;-69
2022/08/20 06:58:14;;;;;;;44.92;32.65;;;;;;;;;;5281957;28;20498;-68
2022/08/20 07:00:46;;;;;;;46.03;34.22;;;;;;;;;;5281780;28;20045;-68
2022/08/20 07:03:17;;;;;;;43.28;32.80;;;;;;;;;;5281732;28;20021;-68
2022/08/20 07:05:48;;;;;;;43.70;32.60;;;;;;;;;;5281996;28;20020;-68
2022/08/20 07:08:21;;;;;;;38.65;31.50;;;;;;;;;;5282497;28;20047;-68
2022/08/20 07:10:52;;;;;;;44.58;31.58;;;;;;;;;;5281270;28;20024;-68
2022/08/20 07:13:23;;;;;;;42.47;32.97;;;;;;;;;;5282339;28;20016;-69
2022/08/20 07:15:55;;;;;;;41.10;33.78;;;;;;;;;;5282559;28;20059;-69
2022/08/20 07:18:26;;;;;;;41.67;33.13;;;;;;;;;;5280999;28;20095;-69
2022/08/20 07:20:57;;;;;;;46.30;34.00;;;;;;;;;;5282053;28;20267;-68
2022/08/20 07:23:30;;;;;;;43.80;31.80;;;;;;;;;;5281686;28;20089;-69
2022/08/20 07:26:02;;;;;;;43.42;32.85;;;;;;;;;;5281481;28;20028;-68
2022/08/20 07:28:33;;;;;;;43.22;32.80;;;;;;;;;;5281245;28;20017;-69
2022/08/20 07:33:54;;;;;;;42.92;31.95;;;;;;;;;;5282212;28;20024;-69
2022/08/20 07:36:26;;;;;;;37.53;31.03;;;;;;;;;;5281606;28;20016;-70
2022/08/20 07:38:57;;;;;;;40.83;31.55;;;;;;;;;;5281217;28;20308;-69
2022/08/20 07:41:28;;;;;;;40.42;31.80;;;;;;;;;;5281254;28;20058;-69
2022/08/20 07:43:59;;;;;;;40.33;32.53;;;;;;;;;;5281761;28;20051;-69
2022/08/20 07:46:31;;;;;;;38.00;31.75;;;;;;;;;;5280702;28;20016;-67
2022/08/20 07:49:04;;;;;;;41.03;30.33;;;;;;;;;;5281762;28;20027;-68
2022/08/20 07:51:36;;;;;;;38.78;31.17;;;;;;;;;;5280286;28;20020;-68
2022/08/20 07:54:07;;;;;;;39.63;29.33;;;;;;;;;;5281074;28;20028;-68
2022/08/20 07:56:38;;;;;;;38.22;30.30;;;;;;;;;;5281179;28;20023;-68
2022/08/20 07:59:12;;;;;;;32.30;26.83;;;;;;;;;;5281889;28;20028;-68
2022/08/20 08:01:43;;;;;;;35.38;27.20;;;;;;;;;;5280137;28;20298;-68
2022/08/20 08:04:15;;;;;;;33.17;27.48;;;;;;;;;;5281598;28;20036;-68
2022/08/20 08:06:46;;;;;;;33.22;27.50;;;;;;;;;;5280161;28;20028;-68
2022/08/20 08:09:17;;;;;;;30.83;26.03;;;;;;;;;;5281745;28;20023;-68
2022/08/20 08:11:49;;;;;;;35.10;26.17;;;;;;;;;;5281174;28;20266;-68
2022/08/20 08:14:23;;;;;;;34.88;25.60;;;;;;;;;;5281028;28;20032;-68
2022/08/20 08:16:56;;;;;;;25.92;19.02;;;;;;;;;;5281042;28;20019;-69
2022/08/20 08:19:33;;;;;;;26.75;19.73;;;;;;;;;;5280977;28;20032;-69
2022/08/20 08:22:05;;;;;;;25.77;19.35;;;;;;;;;;5280918;28;20013;-69
2022/08/20 08:24:37;;;;;;;21.58;17.33;;;;;;;;;;5276975;28;20093;-68
2022/08/20 08:27:09;;;;;;;18.73;14.90;;;;;;;;;;5280600;28;20111;-68
2022/08/20 08:29:42;;;;;;;19.33;12.77;;;;;;;;;;5279747;28;20028;-68
2022/08/20 08:32:13;;;;;;;14.68;11.52;;;;;;;;;;5280992;28;20052;-68
2022/08/20 08:34:46;;;;;;;20.73;12.60;;;;;;;;;;5280047;28;20048;-68
2022/08/20 08:37:18;;;;;;;19.30;13.38;;;;;;;;;;5281482;28;20020;-69
2022/08/20 08:39:49;;;;;;;19.40;14.48;;;;;;;;;;5280521;28;20070;-68
2022/08/20 08:42:26;;;;;;;13.98;10.50;;;;;;;;;;5280591;28;20029;-68
2022/08/20 08:44:59;;;;;;;16.42;12.55;;;;;;;;;;5276894;28;20383;-68
2022/08/20 08:47:34;;;;;;;19.55;12.43;;;;;;;;;;5280211;28;20360;-71
2022/08/20 08:50:08;;;;;;;12.05;10.35;;;;;;;;;;5280035;28;20531;-72
2022/08/20 08:52:40;;;;;;;17.13;11.13;;;;;;;;;;5280537;28;20009;-68
2022/08/20 08:55:14;;;;;;;17.55;10.43;;;;;;;;;;5281102;28;20024;-68
2022/08/20 08:57:46;;;;;;;16.92;9.90;;;;;;;;;;5279311;28;20020;-67
2022/08/20 09:00:20;;;;;;;14.88;7.30;;;;;;;;;;5280509;28;20130;-68
2022/08/20 09:02:56;;;;;;;11.15;5.47;;;;;;;;;;5281943;28;20048;-68
2022/08/20 09:05:35;;;;;;;13.20;5.90;;;;;;;;;;5283565;28;20027;-68
2022/08/20 09:08:10;;;;;;;13.18;7.53;;;;;;;;;;5284625;28;20074;-68
2022/08/20 09:10:43;;;;;;;16.55;6.88;;;;;;;;;;5282185;28;20048;-67
2022/08/20 09:13:14;;;;;;;10.68;5.75;;;;;;;;;;5284763;28;20044;-68
2022/08/20 09:15:45;;;;;;;14.57;6.43;;;;;;;;;;5283984;28;20106;-69
2022/08/20 09:18:16;;;;;;;14.03;6.90;;;;;;;;;;5283899;28;20142;-68
2022/08/20 09:20:47;;;;;;;15.73;7.13;;;;;;;;;;5283725;28;20332;-69
2022/08/20 09:23:18;;;;;;;10.20;7.25;;;;;;;;;;5284153;28;20382;-68
2022/08/20 09:25:50;;;;;;;11.57;6.20;;;;;;;;;;5282703;28;20020;-67
2022/08/20 09:28:21;;;;;;;9.43;5.03;;;;;;;;;;5284293;28;20812;-68
2022/08/20 09:30:52;;;;;;;10.82;5.75;;;;;;;;;;5282988;28;20274;-68
2022/08/20 09:33:23;;;;;;;9.55;5.78;;;;;;;;;;5283973;28;20023;-68
2022/08/20 09:35:54;;;;;;;8.33;3.97;;;;;;;;;;5284199;28;20066;-68
2022/08/20 09:38:25;;;;;;;8.40;5.00;;;;;;;;;;5282803;28;20294;-69
2022/08/20 09:40:57;;;;;;;8.73;3.45;;;;;;;;;;5284354;28;20279;-69
2022/08/20 09:43:28;;;;;;;9.45;4.10;;;;;;;;;;5283635;28;20103;-69
2022/08/20 09:45:59;;;;;;;8.40;3.60;;;;;;;;;;5283438;28;20063;-68
2022/08/20 09:48:30;;;;;;;8.80;4.70;;;;;;;;;;5283631;28;20027;-69
2022/08/20 09:51:02;;;;;;;9.95;4.95;;;;;;;;;;5284100;28;20024;-69
2022/08/20 09:53:33;;;;;;;7.68;3.30;;;;;;;;;;5282506;28;20073;-70
2022/08/20 09:56:04;;;;;;;8.05;2.70;;;;;;;;;;5284295;28;20440;-69
2022/08/20 09:58:46;;;;;;;8.95;2.85;;;;;;;;;;5283349;28;20028;-68
2022/08/20 10:01:18;;;;;;;6.93;2.25;;;;;;;;;;5282933;28;20395;-69
2022/08/20 10:03:49;;;;;;;8.38;1.73;;;;;;;;;;5283234;28;20033;-69
2022/08/20 10:06:20;;;;;;;4.15;1.30;;;;;;;;;;5283001;28;20024;-69
2022/08/20 10:08:51;;;;;;;10.83;2.30;;;;;;;;;;5283329;28;20020;-69
2022/08/20 10:11:23;;;;;;;9.27;1.83;;;;;;;;;;5284264;28;20020;-69
2022/08/20 10:13:54;;;;;;;7.53;1.70;;;;;;;;;;5281521;28;20024;-69
2022/08/20 10:16:25;;;;;;;6.40;2.90;;;;;;;;;;5283274;28;20057;-69
2022/08/20 10:18:56;;;;;;;6.90;2.15;;;;;;;;;;5283788;28;20032;-69
2022/08/20 10:21:28;;;;;;;6.35;1.83;;;;;;;;;;5282173;28;20017;-69
2022/08/20 10:23:59;;;;;;;8.40;1.85;;;;;;;;;;5283366;28;20029;-69
2022/08/20 10:26:30;;;;;;;6.63;1.80;;;;;;;;;;5282896;28;20023;-69
2022/08/20 10:29:02;;;;;;;9.93;2.03;;;;;;;;;;5282660;28;20353;-69
2022/08/20 10:31:33;;;;;;;9.65;2.33;;;;;;;;;;5282829;28;20038;-69
2022/08/20 10:34:04;;;;;;;11.77;2.53;;;;;;;;;;5283207;28;20050;-69
2022/08/20 10:36:35;;;;;;;7.73;2.13;;;;;;;;;;5281600;28;20023;-68
2022/08/20 10:39:06;;;;;;;6.83;2.17;;;;;;;;;;5283380;28;20760;-68
2022/08/20 10:41:38;;;;;;;11.43;2.95;;;;;;;;;;5281631;28;20028;-69
2022/08/20 10:44:09;;;;;;;7.80;2.03;;;;;;;;;;5282780;28;20025;-68
2022/08/20 10:46:40;;;;;;;6.93;1.67;;;;;;;;;;5282445;28;20259;-67
2022/08/20 10:49:11;;;;;;;5.78;1.52;;;;;;;;;;5282050;28;20032;-68
2022/08/20 10:51:42;;;;;;;6.47;1.17;;;;;;;;;;5282296;28;20048;-69
2022/08/20 10:54:14;;;;;;;9.80;2.15;;;;;;;;;;5282644;28;20416;-68
2022/08/20 10:56:45;;;;;;;7.63;1.50;;;;;;;;;;5281189;28;20468;-68
2022/08/20 10:59:18;;;;;;;9.05;1.30;;;;;;;;;;5282560;28;20028;-68
2022/08/20 11:01:49;;;;;;;7.97;1.38;;;;;;;;;;5281668;28;20051;-69
2022/08/20 11:04:20;;;;;;;6.53;1.40;;;;;;;;;;5281627;28;20550;-68
2022/08/20 11:06:52;;;;;;;8.37;1.23;;;;;;;;;;5282066;28;20368;-68
2022/08/20 11:09:23;;;;;;;7.17;1.20;;;;;;;;;;5281567;28;20047;-69
2022/08/20 11:11:54;;;;;;;15.30;1.60;;;;;;;;;;5281904;28;20262;-69
2022/08/20 11:14:25;;;;;;;9.13;0.95;;;;;;;;;;5281847;28;20271;-69
2022/08/20 11:16:56;;;;;;;7.30;1.30;;;;;;;;;;5281519;28;20361;-69
2022/08/20 11:19:27;;;;;;;10.70;1.20;;;;;;;;;;5281611;28;20052;-68
2022/08/20 11:21:59;;;;;;;6.15;0.85;;;;;;;;;;5282128;28;20013;-72
2022/08/20 11:24:30;;;;;;;5.93;1.30;;;;;;;;;;5279900;28;20107;-71
2022/08/20 11:27:01;;;;;;;7.40;1.13;;;;;;;;;;5282238;28;20353;-71
2022/08/20 11:29:36;;;;;;;8.30;0.80;;;;;;;;;;5281350;28;20020;-71
2022/08/20 11:32:07;;;;;;;7.60;0.98;;;;;;;;;;5281331;28;20016;-72
2022/08/20 11:34:38;;;;;;;7.15;1.35;;;;;;;;;;5281193;28;20078;-72
2022/08/20 11:37:11;;;;;;;6.20;1.10;;;;;;;;;;5281789;28;20051;-72
2022/08/20 11:39:42;;;;;;;8.32;1.40;;;;;;;;;;5280555;28;20024;-71
2022/08/20 11:42:14;;;;;;;14.93;1.38;;;;;;;;;;5281788;28;20519;-72
2022/08/20 11:44:45;;;;;;;6.93;0.80;;;;;;;;;;5280406;28;20558;-72
2022/08/20 11:47:24;;;;;;;8.95;0.93;;;;;;;;;;5281715;28;20486;-72
2022/08/20 11:50:01;;;;;;;6.82;1.15;;;;;;;;;;5281379;28;20064;-72
2022/08/20 11:52:33;;;;;;;7.03;1.13;;;;;;;;;;5280623;28;20016;-71
2022/08/20 11:55:05;;;;;;;7.93;0.90;;;;;;;;;;5281682;28;20528;-71
2022/08/20 11:57:39;;;;;;;5.32;0.88;;;;;;;;;;5280988;28;20746;-72
2022/08/20 12:00:14;;;;;;;6.97;1.00;;;;;;;;;;5280985;28;20452;-71
2022/08/20 12:02:46;;;;;;;8.45;0.90;;;;;;;;;;5280630;28;20547;-71
2022/08/20 12:05:17;;;;;;;6.78;1.00;;;;;;;;;;5281611;28;20115;-72
2022/08/20 12:07:48;;;;;;;11.85;1.23;;;;;;;;;;5280209;28;20025;-73
2022/08/20 12:10:21;;;;;;;6.00;0.80;;;;;;;;;;5280834;28;20107;-71
2022/08/20 12:12:53;;;;;;;5.28;1.02;;;;;;;;;;5280313;28;20128;-72
2022/08/20 12:15:25;;;;;;;6.03;0.90;;;;;;;;;;5280914;28;20044;-71
2022/08/20 12:17:56;;;;;;;7.15;0.80;;;;;;;;;;5269864;28;20064;-71
2022/08/20 12:20:27;;;;;;;6.60;1.17;;;;;;;;;;5265986;28;20451;-72
2022/08/20 12:22:59;;;;;;;12.40;0.88;;;;;;;;;;5263385;28;20354;-71
2022/08/20 12:25:30;;;;;;;8.60;0.90;;;;;;;;;;5272920;28;20016;-71
2022/08/20 12:28:03;;;;;;;6.23;0.77;;;;;;;;;;5279771;28;20020;-71
2022/08/20 12:30:35;;;;;;;9.90;0.80;;;;;;;;;;5279870;28;20267;-71
2022/08/20 12:33:06;;;;;;;7.90;1.40;;;;;;;;;;5280099;28;20029;-70
2022/08/20 12:35:37;;;;;;;6.90;0.63;;;;;;;;;;5278872;28;20337;-71
2022/08/20 12:38:08;;;;;;;5.13;0.90;;;;;;;;;;5279588;28;20020;-71
2022/08/20 12:40:39;;;;;;;7.65;1.10;;;;;;;;;;5282064;28;20479;-72
2022/08/20 12:43:11;;;;;;;7.53;1.02;;;;;;;;;;5283247;28;20475;-72
2022/08/20 12:45:42;;;;;;;6.80;0.93;;;;;;;;;;5274496;28;20189;-71
2022/08/20 12:48:13;;;;;;;9.48;0.80;;;;;;;;;;5266751;28;20260;-71
2022/08/20 12:50:45;;;;;;;5.97;0.68;;;;;;;;;;5281629;28;20036;-71
2022/08/20 12:53:16;;;;;;;4.30;0.60;;;;;;;;;;5282881;28;20075;-71
2022/08/20 12:55:47;;;;;;;7.53;0.90;;;;;;;;;;5275545;28;20379;-71
2022/08/20 12:58:18;;;;;;;6.65;1.05;;;;;;;;;;5262820;28;20068;-70
2022/08/20 13:00:49;;;;;;;11.00;1.17;;;;;;;;;;5262679;28;20463;-72
2022/08/20 13:03:21;;;;;;;6.10;0.70;;;;;;;;;;5282902;28;20286;-71
2022/08/20 13:05:52;;;;;;;6.30;0.80;;;;;;;;;;5283085;28;20283;-71
2022/08/20 13:08:23;;;;;;;6.60;0.80;;;;;;;;;;5284379;28;20472;-73
2022/08/20 13:10:54;;;;;;;4.17;0.70;;;;;;;;;;5282931;28;20051;-70
2022/08/20 13:13:25;;;;;;;7.55;0.70;;;;;;;;;;5283955;28;20094;-70
2022/08/20 13:15:56;;;;;;;5.78;0.80;;;;;;;;;;5282942;28;20096;-71
2022/08/20 13:18:27;;;;;;;7.28;1.15;;;;;;;;;;5283798;28;20024;-69
2022/08/20 13:20:59;;;;;;;6.90;0.80;;;;;;;;;;5284151;28;20396;-68
2022/08/20 13:23:30;;;;;;;5.23;0.90;;;;;;;;;;5282718;28;20024;-69
2022/08/20 13:26:01;;;;;;;6.77;0.63;;;;;;;;;;5284446;28;20036;-68
2022/08/20 13:28:32;;;;;;;8.30;0.90;;;;;;;;;;5282666;28;20028;-69
2022/08/20 13:31:03;;;;;;;9.00;1.02;;;;;;;;;;5283068;28;20028;-69
2022/08/20 13:33:35;;;;;;;8.73;1.23;;;;;;;;;;5283038;28;20062;-68
2022/08/20 13:36:06;;;;;;;10.60;1.35;;;;;;;;;;5284379;28;20275;-69
2022/08/20 13:38:37;;;;;;;6.97;0.90;;;;;;;;;;5282832;28;20036;-69
2022/08/20 13:41:08;;;;;;;7.18;1.13;;;;;;;;;;5284265;28;20025;-69
2022/08/20 13:43:39;;;;;;;8.67;1.20;;;;;;;;;;5283345;28;20055;-69
2022/08/20 13:46:11;;;;;;;8.05;0.70;;;;;;;;;;5283222;28;20407;-69
2022/08/20 13:48:42;;;;;;;7.50;1.23;;;;;;;;;;5282267;28;20585;-69
2022/08/20 13:51:13;;;;;;;5.60;0.70;;;;;;;;;;5283407;28;20021;-69
2022/08/20 13:53:45;;;;;;;6.68;1.25;;;;;;;;;;5283644;28;20028;-68
2022/08/20 13:56:16;;;;;;;6.43;1.23;;;;;;;;;;5284126;28;20023;-71
2022/08/20 13:58:48;;;;;;;8.20;0.90;;;;;;;;;;5282488;28;20166;-69
2022/08/20 14:01:19;;;;;;;8.90;0.75;;;;;;;;;;5283939;28;20048;-68
2022/08/20 14:03:50;;;;;;;7.13;0.85;;;;;;;;;;5283294;28;20024;-69
2022/08/20 14:06:21;;;;;;;7.88;0.80;;;;;;;;;;5283127;28;20024;-70
2022/08/20 14:08:52;;;;;;;9.23;0.95;;;;;;;;;;5283149;28;20074;-69
2022/08/20 14:11:23;;;;;;;8.97;0.90;;;;;;;;;;5283266;28;20455;-69
2022/08/20 14:13:54;;;;;;;6.75;1.10;;;;;;;;;;5282611;28;20099;-69
2022/08/20 14:16:26;;;;;;;11.98;1.35;;;;;;;;;;5282837;28;20021;-70
2022/08/20 14:18:57;;;;;;;5.33;1.43;;;;;;;;;;5283647;28;20379;-69
2022/08/20 14:21:28;;;;;;;5.37;1.37;;;;;;;;;;5281986;28;20021;-69
2022/08/20 14:24:00;;;;;;;10.85;1.20;;;;;;;;;;5282966;28;20033;-69
2022/08/20 14:26:31;;;;;;;11.00;1.25;;;;;;;;;;5282151;28;20024;-72
2022/08/20 14:29:03;;;;;;;6.00;0.90;;;;;;;;;;5283260;28;20020;-71
2022/08/20 14:31:34;;;;;;;8.47;0.93;;;;;;;;;;5282358;28;20021;-71
2022/08/20 14:34:05;;;;;;;7.33;1.07;;;;;;;;;;5282014;28;20300;-72
2022/08/20 14:36:36;;;;;;;8.77;1.17;;;;;;;;;;5282491;28;20275;-72
2022/08/20 14:39:07;;;;;;;10.90;0.83;;;;;;;;;;5282450;28;20056;-72
2022/08/20 14:41:39;;;;;;;9.83;0.90;;;;;;;;;;5281522;28;20074;-69
2022/08/20 14:44:10;;;;;;;7.90;0.87;;;;;;;;;;5282581;28;20032;-69
2022/08/20 14:46:41;;;;;;;9.25;1.00;;;;;;;;;;5282284;28;20286;-68
2022/08/20 14:49:12;;;;;;;8.15;0.98;;;;;;;;;;5281760;28;20029;-69
2022/08/20 14:51:43;;;;;;;6.30;1.05;;;;;;;;;;5282177;28;20379;-69
2022/08/20 14:54:14;;;;;;;9.73;1.00;;;;;;;;;;5276956;28;20372;-69
2022/08/20 14:56:45;;;;;;;6.50;0.70;;;;;;;;;;5261696;28;20016;-69
2022/08/20 14:59:17;;;;;;;11.88;1.23;;;;;;;;;;5260883;28;20032;-69